sensor_id;sensor_type;location;lat;lon;timestamp;temperature;humidity
54429;DHT22;40337;52.978;6.310;2023-07-02T00:00:58;16.10;99.90
54429;DHT22;40337;52.978;6.310;2023-07-02T00:03:24;16.10;99.90
54429;DHT22;40337;52.978;6.310;2023-07-02T00:05:49;16.10;99.90
54429;DHT22;40337;52.978;6.310;2023-07-02T00:08:16;16.10;99.90
54429;DHT22;40337;52.978;6.310;2023-07-02T00:10:43;16.10;99.90
54429;DHT22;40337;52.978;6.310;2023-07-02T00:13:08;16.10;99.90
54429;DHT22;40337;52.978;6.310;2023-07-02T00:15:34;16.10;99.90
54429;DHT22;40337;52.978;6.310;2023-07-02T00:17:59;16.00;99.90
54429;DHT22;40337;52.978;6.310;2023-07-02T00:20:25;16.00;99.90
54429;DHT22;40337;52.978;6.310;2023-07-02T00:22:50;15.90;99.90
54429;DHT22;40337;52.978;6.310;2023-07-02T00:25:16;15.90;99.90
54429;DHT22;40337;52.978;6.310;2023-07-02T00:27:42;15.90;99.90
54429;DHT22;40337;52.978;6.310;2023-07-02T00:30:08;15.80;99.90
54429;DHT22;40337;52.978;6.310;2023-07-02T00:32:33;15.80;99.90
54429;DHT22;40337;52.978;6.310;2023-07-02T00:34:59;15.80;99.90
54429;DHT22;40337;52.978;6.310;2023-07-02T00:37:25;15.70;99.90
54429;DHT22;40337;52.978;6.310;2023-07-02T00:39:50;15.70;99.90
54429;DHT22;40337;52.978;6.310;2023-07-02T00:42:17;15.70;99.90
54429;DHT22;40337;52.978;6.310;2023-07-02T00:44:43;15.70;99.90
54429;DHT22;40337;52.978;6.310;2023-07-02T00:47:10;15.60;99.90
54429;DHT22;40337;52.978;6.310;2023-07-02T00:49:37;15.60;99.90
54429;DHT22;40337;52.978;6.310;2023-07-02T00:52:03;15.50;99.90
54429;DHT22;40337;52.978;6.310;2023-07-02T00:54:29;15.50;99.90
54429;DHT22;40337;52.978;6.310;2023-07-02T00:56:55;15.40;99.90
54429;DHT22;40337;52.978;6.310;2023-07-02T00:59:21;15.40;99.90
54429;DHT22;40337;52.978;6.310;2023-07-02T01:01:46;15.30;99.90
54429;DHT22;40337;52.978;6.310;2023-07-02T01:04:18;15.30;99.90
54429;DHT22;40337;52.978;6.310;2023-07-02T01:06:44;15.30;99.90
54429;DHT22;40337;52.978;6.310;2023-07-02T01:09:12;15.30;99.90
54429;DHT22;40337;52.978;6.310;2023-07-02T01:11:43;15.20;99.90
54429;DHT22;40337;52.978;6.310;2023-07-02T01:14:14;15.20;99.90
54429;DHT22;40337;52.978;6.310;2023-07-02T01:16:42;15.20;99.90
54429;DHT22;40337;52.978;6.310;2023-07-02T01:19:17;15.20;99.90
54429;DHT22;40337;52.978;6.310;2023-07-02T01:21:45;15.10;99.90
54429;DHT22;40337;52.978;6.310;2023-07-02T01:24:12;15.10;99.90
54429;DHT22;40337;52.978;6.310;2023-07-02T01:26:39;15.10;99.90
54429;DHT22;40337;52.978;6.310;2023-07-02T01:29:19;15.10;99.90
54429;DHT22;40337;52.978;6.310;2023-07-02T01:31:46;15.10;99.90
54429;DHT22;40337;52.978;6.310;2023-07-02T01:34:12;15.00;99.90
54429;DHT22;40337;52.978;6.310;2023-07-02T01:36:38;15.00;99.90
54429;DHT22;40337;52.978;6.310;2023-07-02T01:39:05;15.00;99.90
54429;DHT22;40337;52.978;6.310;2023-07-02T01:41:36;14.90;99.90
54429;DHT22;40337;52.978;6.310;2023-07-02T01:44:03;14.90;99.90
54429;DHT22;40337;52.978;6.310;2023-07-02T01:46:29;14.90;99.90
54429;DHT22;40337;52.978;6.310;2023-07-02T01:48:54;14.80;99.90
54429;DHT22;40337;52.978;6.310;2023-07-02T01:51:20;14.80;99.90
54429;DHT22;40337;52.978;6.310;2023-07-02T01:53:46;14.80;99.90
54429;DHT22;40337;52.978;6.310;2023-07-02T01:56:12;14.80;99.90
54429;DHT22;40337;52.978;6.310;2023-07-02T01:58:37;14.70;99.90
54429;DHT22;40337;52.978;6.310;2023-07-02T02:01:03;14.70;99.90
54429;DHT22;40337;52.978;6.310;2023-07-02T02:03:28;14.60;99.90
54429;DHT22;40337;52.978;6.310;2023-07-02T02:05:54;14.60;99.90
54429;DHT22;40337;52.978;6.310;2023-07-02T02:08:19;14.60;99.90
54429;DHT22;40337;52.978;6.310;2023-07-02T02:10:45;14.50;99.90
54429;DHT22;40337;52.978;6.310;2023-07-02T02:13:10;14.50;99.90
54429;DHT22;40337;52.978;6.310;2023-07-02T02:15:36;14.50;99.90
54429;DHT22;40337;52.978;6.310;2023-07-02T02:18:02;14.40;99.90
54429;DHT22;40337;52.978;6.310;2023-07-02T02:20:27;14.40;99.90
54429;DHT22;40337;52.978;6.310;2023-07-02T02:22:53;14.40;99.90
54429;DHT22;40337;52.978;6.310;2023-07-02T02:25:18;14.40;99.90
54429;DHT22;40337;52.978;6.310;2023-07-02T02:27:44;14.40;99.90
54429;DHT22;40337;52.978;6.310;2023-07-02T02:30:10;14.40;99.90
54429;DHT22;40337;52.978;6.310;2023-07-02T02:32:35;14.40;99.90
54429;DHT22;40337;52.978;6.310;2023-07-02T02:35:02;14.40;99.90
54429;DHT22;40337;52.978;6.310;2023-07-02T02:37:28;14.40;99.90
54429;DHT22;40337;52.978;6.310;2023-07-02T02:39:55;14.40;99.90
54429;DHT22;40337;52.978;6.310;2023-07-02T02:42:22;14.40;99.90
54429;DHT22;40337;52.978;6.310;2023-07-02T02:44:48;14.40;99.90
54429;DHT22;40337;52.978;6.310;2023-07-02T02:47:13;14.40;99.90
54429;DHT22;40337;52.978;6.310;2023-07-02T02:49:39;14.30;99.90
54429;DHT22;40337;52.978;6.310;2023-07-02T02:52:07;14.30;99.90
54429;DHT22;40337;52.978;6.310;2023-07-02T02:54:33;14.30;99.90
54429;DHT22;40337;52.978;6.310;2023-07-02T02:56:58;14.30;99.90
54429;DHT22;40337;52.978;6.310;2023-07-02T02:59:24;14.20;99.90
54429;DHT22;40337;52.978;6.310;2023-07-02T03:01:49;14.10;99.90
54429;DHT22;40337;52.978;6.310;2023-07-02T03:04:16;14.10;99.90
54429;DHT22;40337;52.978;6.310;2023-07-02T03:06:42;14.10;99.90
54429;DHT22;40337;52.978;6.310;2023-07-02T03:09:07;14.10;99.90
54429;DHT22;40337;52.978;6.310;2023-07-02T03:11:33;14.00;99.90
54429;DHT22;40337;52.978;6.310;2023-07-02T03:13:58;14.00;99.90
54429;DHT22;40337;52.978;6.310;2023-07-02T03:16:24;14.00;99.90
54429;DHT22;40337;52.978;6.310;2023-07-02T03:18:49;14.00;99.90
54429;DHT22;40337;52.978;6.310;2023-07-02T03:21:16;13.90;99.90
54429;DHT22;40337;52.978;6.310;2023-07-02T03:23:41;13.80;99.90
54429;DHT22;40337;52.978;6.310;2023-07-02T03:26:07;13.80;99.90
54429;DHT22;40337;52.978;6.310;2023-07-02T03:28:32;13.80;99.90
54429;DHT22;40337;52.978;6.310;2023-07-02T03:31:00;13.80;99.90
54429;DHT22;40337;52.978;6.310;2023-07-02T03:33:25;13.80;99.90
54429;DHT22;40337;52.978;6.310;2023-07-02T03:35:51;13.80;99.90
54429;DHT22;40337;52.978;6.310;2023-07-02T03:38:16;13.80;99.90
54429;DHT22;40337;52.978;6.310;2023-07-02T03:40:42;13.80;99.90
54429;DHT22;40337;52.978;6.310;2023-07-02T03:43:08;13.80;99.90
54429;DHT22;40337;52.978;6.310;2023-07-02T03:45:33;13.80;99.90
54429;DHT22;40337;52.978;6.310;2023-07-02T03:47:59;13.80;99.90
54429;DHT22;40337;52.978;6.310;2023-07-02T03:50:24;13.70;99.90
54429;DHT22;40337;52.978;6.310;2023-07-02T03:52:50;13.80;99.90
54429;DHT22;40337;52.978;6.310;2023-07-02T03:55:15;13.80;99.90
54429;DHT22;40337;52.978;6.310;2023-07-02T03:57:41;13.70;99.90
54429;DHT22;40337;52.978;6.310;2023-07-02T04:00:07;13.80;99.90
54429;DHT22;40337;52.978;6.310;2023-07-02T04:02:33;13.70;99.90
54429;DHT22;40337;52.978;6.310;2023-07-02T04:04:58;13.80;99.90
54429;DHT22;40337;52.978;6.310;2023-07-02T04:07:24;13.80;99.90
54429;DHT22;40337;52.978;6.310;2023-07-02T04:09:49;13.80;99.90
54429;DHT22;40337;52.978;6.310;2023-07-02T04:12:15;13.90;99.90
54429;DHT22;40337;52.978;6.310;2023-07-02T04:14:40;14.00;99.90
54429;DHT22;40337;52.978;6.310;2023-07-02T04:17:06;14.10;99.90
54429;DHT22;40337;52.978;6.310;2023-07-02T04:19:31;14.20;99.90
54429;DHT22;40337;52.978;6.310;2023-07-02T04:21:57;14.20;99.90
54429;DHT22;40337;52.978;6.310;2023-07-02T04:24:22;14.40;99.90
54429;DHT22;40337;52.978;6.310;2023-07-02T04:26:48;14.50;99.90
54429;DHT22;40337;52.978;6.310;2023-07-02T04:29:14;14.50;99.90
54429;DHT22;40337;52.978;6.310;2023-07-02T04:31:39;14.60;99.90
54429;DHT22;40337;52.978;6.310;2023-07-02T04:34:05;14.60;99.90
54429;DHT22;40337;52.978;6.310;2023-07-02T04:36:31;14.70;99.90
54429;DHT22;40337;52.978;6.310;2023-07-02T04:38:57;14.70;99.90
54429;DHT22;40337;52.978;6.310;2023-07-02T04:41:22;14.80;99.90
54429;DHT22;40337;52.978;6.310;2023-07-02T04:43:48;14.80;99.90
54429;DHT22;40337;52.978;6.310;2023-07-02T04:46:13;14.80;99.90
54429;DHT22;40337;52.978;6.310;2023-07-02T04:48:39;14.90;99.90
54429;DHT22;40337;52.978;6.310;2023-07-02T04:51:04;14.90;99.90
54429;DHT22;40337;52.978;6.310;2023-07-02T04:53:30;14.90;99.90
54429;DHT22;40337;52.978;6.310;2023-07-02T04:55:56;15.00;99.90
54429;DHT22;40337;52.978;6.310;2023-07-02T04:58:24;15.00;99.90
54429;DHT22;40337;52.978;6.310;2023-07-02T05:00:49;15.10;99.90
54429;DHT22;40337;52.978;6.310;2023-07-02T05:03:15;15.10;99.90
54429;DHT22;40337;52.978;6.310;2023-07-02T05:05:40;15.10;99.90
54429;DHT22;40337;52.978;6.310;2023-07-02T05:08:06;15.20;99.90
54429;DHT22;40337;52.978;6.310;2023-07-02T05:10:32;15.20;99.90
54429;DHT22;40337;52.978;6.310;2023-07-02T05:12:58;15.20;99.90
54429;DHT22;40337;52.978;6.310;2023-07-02T05:15:24;15.20;99.90
54429;DHT22;40337;52.978;6.310;2023-07-02T05:17:49;15.20;99.90
54429;DHT22;40337;52.978;6.310;2023-07-02T05:20:15;15.20;99.90
54429;DHT22;40337;52.978;6.310;2023-07-02T05:22:41;15.30;99.90
54429;DHT22;40337;52.978;6.310;2023-07-02T05:25:06;15.30;99.90
54429;DHT22;40337;52.978;6.310;2023-07-02T05:27:32;15.30;99.90
54429;DHT22;40337;52.978;6.310;2023-07-02T05:29:58;15.40;99.90
54429;DHT22;40337;52.978;6.310;2023-07-02T05:32:23;15.40;99.90
54429;DHT22;40337;52.978;6.310;2023-07-02T05:34:49;15.40;99.90
54429;DHT22;40337;52.978;6.310;2023-07-02T05:37:15;15.50;99.90
54429;DHT22;40337;52.978;6.310;2023-07-02T05:39:40;15.50;99.90
54429;DHT22;40337;52.978;6.310;2023-07-02T05:42:06;15.50;99.90
54429;DHT22;40337;52.978;6.310;2023-07-02T05:44:31;15.60;99.90
54429;DHT22;40337;52.978;6.310;2023-07-02T05:46:57;15.60;99.90
54429;DHT22;40337;52.978;6.310;2023-07-02T05:49:23;15.70;99.90
54429;DHT22;40337;52.978;6.310;2023-07-02T05:51:48;15.80;99.90
54429;DHT22;40337;52.978;6.310;2023-07-02T05:54:14;15.80;99.90
54429;DHT22;40337;52.978;6.310;2023-07-02T05:56:39;15.90;99.90
54429;DHT22;40337;52.978;6.310;2023-07-02T05:59:05;15.90;99.90
54429;DHT22;40337;52.978;6.310;2023-07-02T06:01:30;16.00;99.90
54429;DHT22;40337;52.978;6.310;2023-07-02T06:03:56;16.10;99.90
54429;DHT22;40337;52.978;6.310;2023-07-02T06:06:22;16.20;99.90
54429;DHT22;40337;52.978;6.310;2023-07-02T06:08:49;16.40;99.90
54429;DHT22;40337;52.978;6.310;2023-07-02T06:11:15;16.70;99.90
54429;DHT22;40337;52.978;6.310;2023-07-02T06:13:41;17.00;99.90
54429;DHT22;40337;52.978;6.310;2023-07-02T06:16:06;17.30;99.90
54429;DHT22;40337;52.978;6.310;2023-07-02T06:18:32;17.30;99.90
54429;DHT22;40337;52.978;6.310;2023-07-02T06:20:57;17.60;99.90
54429;DHT22;40337;52.978;6.310;2023-07-02T06:23:23;17.60;99.90
54429;DHT22;40337;52.978;6.310;2023-07-02T06:25:48;17.70;99.90
54429;DHT22;40337;52.978;6.310;2023-07-02T06:28:17;17.80;99.90
54429;DHT22;40337;52.978;6.310;2023-07-02T06:30:42;17.70;99.90
54429;DHT22;40337;52.978;6.310;2023-07-02T06:33:08;17.90;99.90
54429;DHT22;40337;52.978;6.310;2023-07-02T06:35:33;18.10;99.90
54429;DHT22;40337;52.978;6.310;2023-07-02T06:37:59;18.40;99.90
54429;DHT22;40337;52.978;6.310;2023-07-02T06:40:24;18.20;99.90
54429;DHT22;40337;52.978;6.310;2023-07-02T06:42:50;17.90;99.90
54429;DHT22;40337;52.978;6.310;2023-07-02T06:45:15;17.80;99.90
54429;DHT22;40337;52.978;6.310;2023-07-02T06:47:41;17.70;99.90
54429;DHT22;40337;52.978;6.310;2023-07-02T06:50:07;17.70;99.90
54429;DHT22;40337;52.978;6.310;2023-07-02T06:52:32;17.90;99.90
54429;DHT22;40337;52.978;6.310;2023-07-02T06:54:58;17.70;99.90
54429;DHT22;40337;52.978;6.310;2023-07-02T06:57:23;17.70;99.90
54429;DHT22;40337;52.978;6.310;2023-07-02T06:59:49;17.90;99.90
54429;DHT22;40337;52.978;6.310;2023-07-02T07:02:15;18.20;99.90
54429;DHT22;40337;52.978;6.310;2023-07-02T07:04:41;18.50;99.90
54429;DHT22;40337;52.978;6.310;2023-07-02T07:07:06;18.60;99.90
54429;DHT22;40337;52.978;6.310;2023-07-02T07:09:32;18.70;99.90
54429;DHT22;40337;52.978;6.310;2023-07-02T07:11:57;18.80;99.90
54429;DHT22;40337;52.978;6.310;2023-07-02T07:14:23;19.00;99.90
54429;DHT22;40337;52.978;6.310;2023-07-02T07:16:49;18.90;99.90
54429;DHT22;40337;52.978;6.310;2023-07-02T07:19:15;18.90;99.90
54429;DHT22;40337;52.978;6.310;2023-07-02T07:21:41;18.60;99.90
54429;DHT22;40337;52.978;6.310;2023-07-02T07:24:08;18.30;99.90
54429;DHT22;40337;52.978;6.310;2023-07-02T07:26:33;18.60;99.90
54429;DHT22;40337;52.978;6.310;2023-07-02T07:28:59;18.80;99.50
54429;DHT22;40337;52.978;6.310;2023-07-02T07:31:25;18.80;99.00
54429;DHT22;40337;52.978;6.310;2023-07-02T07:33:50;19.10;98.90
54429;DHT22;40337;52.978;6.310;2023-07-02T07:36:16;19.50;99.20
54429;DHT22;40337;52.978;6.310;2023-07-02T07:38:43;19.70;99.10
54429;DHT22;40337;52.978;6.310;2023-07-02T07:41:09;19.70;97.90
54429;DHT22;40337;52.978;6.310;2023-07-02T07:43:34;19.80;97.70
54429;DHT22;40337;52.978;6.310;2023-07-02T07:46:00;19.50;98.30
54429;DHT22;40337;52.978;6.310;2023-07-02T07:48:26;19.10;98.30
54429;DHT22;40337;52.978;6.310;2023-07-02T07:50:51;18.80;98.00
54429;DHT22;40337;52.978;6.310;2023-07-02T07:53:17;19.10;98.00
54429;DHT22;40337;52.978;6.310;2023-07-02T07:55:42;19.40;98.80
54429;DHT22;40337;52.978;6.310;2023-07-02T07:58:08;19.80;98.90
54429;DHT22;40337;52.978;6.310;2023-07-02T08:00:33;19.70;98.50
54429;DHT22;40337;52.978;6.310;2023-07-02T08:02:59;19.80;98.00
54429;DHT22;40337;52.978;6.310;2023-07-02T08:05:26;19.40;98.30
54429;DHT22;40337;52.978;6.310;2023-07-02T08:07:51;19.00;98.50
54429;DHT22;40337;52.978;6.310;2023-07-02T08:10:19;18.80;99.10
54429;DHT22;40337;52.978;6.310;2023-07-02T08:12:44;19.10;99.00
54429;DHT22;40337;52.978;6.310;2023-07-02T08:15:11;19.10;99.30
54429;DHT22;40337;52.978;6.310;2023-07-02T08:17:37;18.90;98.90
54429;DHT22;40337;52.978;6.310;2023-07-02T08:20:03;18.60;99.10
54429;DHT22;40337;52.978;6.310;2023-07-02T08:22:30;18.40;99.20
54429;DHT22;40337;52.978;6.310;2023-07-02T08:24:55;18.10;99.50
54429;DHT22;40337;52.978;6.310;2023-07-02T08:27:21;18.00;99.90
54429;DHT22;40337;52.978;6.310;2023-07-02T08:29:48;17.70;99.90
54429;DHT22;40337;52.978;6.310;2023-07-02T08:32:14;17.60;99.90
54429;DHT22;40337;52.978;6.310;2023-07-02T08:34:40;17.50;99.90
54429;DHT22;40337;52.978;6.310;2023-07-02T08:37:05;17.50;99.90
54429;DHT22;40337;52.978;6.310;2023-07-02T08:39:31;18.00;99.90
54429;DHT22;40337;52.978;6.310;2023-07-02T08:41:56;18.30;99.90
54429;DHT22;40337;52.978;6.310;2023-07-02T08:44:22;18.70;99.90
54429;DHT22;40337;52.978;6.310;2023-07-02T08:46:49;18.70;99.90
54429;DHT22;40337;52.978;6.310;2023-07-02T08:49:16;18.80;99.90
54429;DHT22;40337;52.978;6.310;2023-07-02T08:51:46;19.00;99.90
54429;DHT22;40337;52.978;6.310;2023-07-02T08:54:12;19.50;99.90
54429;DHT22;40337;52.978;6.310;2023-07-02T08:56:39;19.60;99.90
54429;DHT22;40337;52.978;6.310;2023-07-02T08:59:07;19.20;99.90
54429;DHT22;40337;52.978;6.310;2023-07-02T09:01:33;18.90;99.90
54429;DHT22;40337;52.978;6.310;2023-07-02T09:03:59;19.40;99.90
54429;DHT22;40337;52.978;6.310;2023-07-02T09:06:27;19.60;99.90
54429;DHT22;40337;52.978;6.310;2023-07-02T09:08:53;19.60;99.90
54429;DHT22;40337;52.978;6.310;2023-07-02T09:11:28;19.90;99.90
54429;DHT22;40337;52.978;6.310;2023-07-02T09:13:53;20.00;99.90
54429;DHT22;40337;52.978;6.310;2023-07-02T09:16:27;19.80;99.90
54429;DHT22;40337;52.978;6.310;2023-07-02T09:21:44;19.10;99.70
54429;DHT22;40337;52.978;6.310;2023-07-02T09:24:21;18.90;99.90
54429;DHT22;40337;52.978;6.310;2023-07-02T09:26:49;18.80;99.90
54429;DHT22;40337;52.978;6.310;2023-07-02T09:29:32;18.60;99.70
54429;DHT22;40337;52.978;6.310;2023-07-02T09:31:59;18.40;99.70
54429;DHT22;40337;52.978;6.310;2023-07-02T09:34:33;18.30;99.90
54429;DHT22;40337;52.978;6.310;2023-07-02T09:36:59;18.30;99.90
54429;DHT22;40337;52.978;6.310;2023-07-02T09:39:27;18.90;99.90
54429;DHT22;40337;52.978;6.310;2023-07-02T09:41:55;19.40;99.90
54429;DHT22;40337;52.978;6.310;2023-07-02T09:44:25;19.20;99.90
54429;DHT22;40337;52.978;6.310;2023-07-02T09:47:08;19.10;99.90
54429;DHT22;40337;52.978;6.310;2023-07-02T09:49:37;19.10;99.90
54429;DHT22;40337;52.978;6.310;2023-07-02T09:52:04;19.10;99.90
54429;DHT22;40337;52.978;6.310;2023-07-02T09:54:30;19.10;99.90
54429;DHT22;40337;52.978;6.310;2023-07-02T09:56:57;19.20;99.90
54429;DHT22;40337;52.978;6.310;2023-07-02T09:59:23;19.30;99.90
54429;DHT22;40337;52.978;6.310;2023-07-02T10:01:49;19.30;99.90
54429;DHT22;40337;52.978;6.310;2023-07-02T10:04:17;19.30;99.90
54429;DHT22;40337;52.978;6.310;2023-07-02T10:09:16;19.20;99.90
54429;DHT22;40337;52.978;6.310;2023-07-02T10:11:42;19.10;98.60
54429;DHT22;40337;52.978;6.310;2023-07-02T10:14:08;19.10;98.10
54429;DHT22;40337;52.978;6.310;2023-07-02T10:16:33;19.10;98.40
54429;DHT22;40337;52.978;6.310;2023-07-02T10:19:12;19.30;98.40
54429;DHT22;40337;52.978;6.310;2023-07-02T10:21:38;19.40;98.50
54429;DHT22;40337;52.978;6.310;2023-07-02T10:24:14;19.30;97.20
54429;DHT22;40337;52.978;6.310;2023-07-02T10:27:01;19.50;97.90
54429;DHT22;40337;52.978;6.310;2023-07-02T10:29:28;19.50;97.90
54429;DHT22;40337;52.978;6.310;2023-07-02T10:31:55;19.30;97.50
54429;DHT22;40337;52.978;6.310;2023-07-02T10:36:54;19.40;98.10
54429;DHT22;40337;52.978;6.310;2023-07-02T10:39:20;19.20;98.10
54429;DHT22;40337;52.978;6.310;2023-07-02T10:41:46;19.10;98.60
54429;DHT22;40337;52.978;6.310;2023-07-02T10:44:11;19.70;99.00
54429;DHT22;40337;52.978;6.310;2023-07-02T10:46:45;19.90;99.10
54429;DHT22;40337;52.978;6.310;2023-07-02T10:49:10;20.10;98.10
54429;DHT22;40337;52.978;6.310;2023-07-02T10:51:37;20.30;97.50
54429;DHT22;40337;52.978;6.310;2023-07-02T10:54:03;20.20;97.50
54429;DHT22;40337;52.978;6.310;2023-07-02T10:56:31;20.00;97.40
54429;DHT22;40337;52.978;6.310;2023-07-02T10:58:57;19.80;97.80
54429;DHT22;40337;52.978;6.310;2023-07-02T11:01:28;19.80;97.80
54429;DHT22;40337;52.978;6.310;2023-07-02T11:04:01;20.10;97.90
54429;DHT22;40337;52.978;6.310;2023-07-02T11:06:27;19.90;98.50
54429;DHT22;40337;52.978;6.310;2023-07-02T11:08:53;19.80;97.70
54429;DHT22;40337;52.978;6.310;2023-07-02T11:11:22;20.00;98.40
54429;DHT22;40337;52.978;6.310;2023-07-02T11:13:49;19.80;96.80
54429;DHT22;40337;52.978;6.310;2023-07-02T11:16:24;19.60;97.20
54429;DHT22;40337;52.978;6.310;2023-07-02T11:18:52;19.30;97.90
54429;DHT22;40337;52.978;6.310;2023-07-02T11:21:18;19.60;97.90
54429;DHT22;40337;52.978;6.310;2023-07-02T11:23:44;19.70;98.00
54429;DHT22;40337;52.978;6.310;2023-07-02T11:26:09;20.40;98.60
54429;DHT22;40337;52.978;6.310;2023-07-02T11:28:35;20.80;98.10
54429;DHT22;40337;52.978;6.310;2023-07-02T11:31:01;20.80;97.50
54429;DHT22;40337;52.978;6.310;2023-07-02T11:33:38;20.20;97.30
54429;DHT22;40337;52.978;6.310;2023-07-02T11:36:06;19.70;98.10
54429;DHT22;40337;52.978;6.310;2023-07-02T11:38:33;19.30;98.20
54429;DHT22;40337;52.978;6.310;2023-07-02T11:40:59;19.40;98.10
54429;DHT22;40337;52.978;6.310;2023-07-02T11:43:25;19.60;98.60
54429;DHT22;40337;52.978;6.310;2023-07-02T11:45:51;20.20;98.00
54429;DHT22;40337;52.978;6.310;2023-07-02T11:48:17;20.50;97.30
54429;DHT22;40337;52.978;6.310;2023-07-02T11:50:43;20.40;96.70
54429;DHT22;40337;52.978;6.310;2023-07-02T11:53:08;20.20;96.00
54429;DHT22;40337;52.978;6.310;2023-07-02T11:55:34;20.50;96.60
54429;DHT22;40337;52.978;6.310;2023-07-02T11:57:59;20.30;96.60
54429;DHT22;40337;52.978;6.310;2023-07-02T12:00:25;20.00;96.10
54429;DHT22;40337;52.978;6.310;2023-07-02T12:02:52;19.80;96.40
54429;DHT22;40337;52.978;6.310;2023-07-02T12:05:18;19.60;97.00
54429;DHT22;40337;52.978;6.310;2023-07-02T12:07:43;19.60;96.90
54429;DHT22;40337;52.978;6.310;2023-07-02T12:10:09;20.20;96.60
54429;DHT22;40337;52.978;6.310;2023-07-02T12:12:34;20.50;95.70
54429;DHT22;40337;52.978;6.310;2023-07-02T12:15:00;20.40;95.40
54429;DHT22;40337;52.978;6.310;2023-07-02T12:17:25;20.50;95.40
54429;DHT22;40337;52.978;6.310;2023-07-02T12:19:51;20.20;94.60
54429;DHT22;40337;52.978;6.310;2023-07-02T12:22:16;19.90;95.00
54429;DHT22;40337;52.978;6.310;2023-07-02T12:24:43;19.60;95.70
54429;DHT22;40337;52.978;6.310;2023-07-02T12:27:09;19.30;96.40
54429;DHT22;40337;52.978;6.310;2023-07-02T12:29:37;19.00;96.60
54429;DHT22;40337;52.978;6.310;2023-07-02T12:32:03;18.90;96.60
54429;DHT22;40337;52.978;6.310;2023-07-02T12:34:29;18.70;97.50
54429;DHT22;40337;52.978;6.310;2023-07-02T12:36:56;18.70;98.50
54429;DHT22;40337;52.978;6.310;2023-07-02T12:39:22;18.70;98.20
54429;DHT22;40337;52.978;6.310;2023-07-02T12:41:47;18.80;98.20
54429;DHT22;40337;52.978;6.310;2023-07-02T12:44:13;19.30;98.10
54429;DHT22;40337;52.978;6.310;2023-07-02T12:46:38;19.90;98.50
54429;DHT22;40337;52.978;6.310;2023-07-02T12:49:04;19.80;97.40
54429;DHT22;40337;52.978;6.310;2023-07-02T12:51:29;19.80;97.50
54429;DHT22;40337;52.978;6.310;2023-07-02T12:53:55;19.70;97.60
54429;DHT22;40337;52.978;6.310;2023-07-02T12:56:20;19.50;97.80
54429;DHT22;40337;52.978;6.310;2023-07-02T12:58:46;19.30;97.80
54429;DHT22;40337;52.978;6.310;2023-07-02T13:01:11;19.20;98.30
54429;DHT22;40337;52.978;6.310;2023-07-02T13:03:37;19.10;97.70
54429;DHT22;40337;52.978;6.310;2023-07-02T13:06:03;19.00;97.40
54429;DHT22;40337;52.978;6.310;2023-07-02T13:08:28;19.20;97.70
54429;DHT22;40337;52.978;6.310;2023-07-02T13:10:54;19.30;97.40
54429;DHT22;40337;52.978;6.310;2023-07-02T13:13:19;19.50;96.30
54429;DHT22;40337;52.978;6.310;2023-07-02T13:15:45;19.70;95.40
54429;DHT22;40337;52.978;6.310;2023-07-02T13:18:11;19.80;94.70
54429;DHT22;40337;52.978;6.310;2023-07-02T13:20:36;20.10;94.70
54429;DHT22;40337;52.978;6.310;2023-07-02T13:23:03;20.00;93.50
54429;DHT22;40337;52.978;6.310;2023-07-02T13:25:28;19.70;93.10
54429;DHT22;40337;52.978;6.310;2023-07-02T13:27:54;19.70;93.60
54429;DHT22;40337;52.978;6.310;2023-07-02T13:30:19;19.60;94.10
54429;DHT22;40337;52.978;6.310;2023-07-02T13:32:45;19.80;93.40
54429;DHT22;40337;52.978;6.310;2023-07-02T13:35:11;19.60;93.50
54429;DHT22;40337;52.978;6.310;2023-07-02T13:37:36;20.00;94.50
54429;DHT22;40337;52.978;6.310;2023-07-02T13:40:02;20.40;93.00
54429;DHT22;40337;52.978;6.310;2023-07-02T13:42:30;20.80;92.60
54429;DHT22;40337;52.978;6.310;2023-07-02T13:44:55;20.80;92.10
54429;DHT22;40337;52.978;6.310;2023-07-02T13:47:24;20.80;92.60
54429;DHT22;40337;52.978;6.310;2023-07-02T13:49:49;21.00;92.90
54429;DHT22;40337;52.978;6.310;2023-07-02T13:52:15;20.70;93.30
54429;DHT22;40337;52.978;6.310;2023-07-02T13:54:40;20.60;93.70
54429;DHT22;40337;52.978;6.310;2023-07-02T13:57:06;20.80;94.40
54429;DHT22;40337;52.978;6.310;2023-07-02T13:59:32;20.80;94.20
54429;DHT22;40337;52.978;6.310;2023-07-02T14:01:57;20.50;93.50
54429;DHT22;40337;52.978;6.310;2023-07-02T14:04:23;20.10;92.40
54429;DHT22;40337;52.978;6.310;2023-07-02T14:06:48;19.80;92.60
54429;DHT22;40337;52.978;6.310;2023-07-02T14:09:14;19.50;93.40
54429;DHT22;40337;52.978;6.310;2023-07-02T14:11:41;19.20;94.00
54429;DHT22;40337;52.978;6.310;2023-07-02T14:14:08;19.20;94.10
54429;DHT22;40337;52.978;6.310;2023-07-02T14:16:34;19.20;94.40
54429;DHT22;40337;52.978;6.310;2023-07-02T14:18:59;19.10;93.60
54429;DHT22;40337;52.978;6.310;2023-07-02T14:21:25;19.10;93.80
54429;DHT22;40337;52.978;6.310;2023-07-02T14:23:50;19.00;94.20
54429;DHT22;40337;52.978;6.310;2023-07-02T14:26:16;19.10;93.70
54429;DHT22;40337;52.978;6.310;2023-07-02T14:28:41;19.20;93.40
54429;DHT22;40337;52.978;6.310;2023-07-02T14:31:07;19.20;93.80
54429;DHT22;40337;52.978;6.310;2023-07-02T14:33:35;19.30;94.10
54429;DHT22;40337;52.978;6.310;2023-07-02T14:36:02;19.60;94.30
54429;DHT22;40337;52.978;6.310;2023-07-02T14:38:28;19.50;94.20
54429;DHT22;40337;52.978;6.310;2023-07-02T14:40:55;19.60;94.00
54429;DHT22;40337;52.978;6.310;2023-07-02T14:43:23;19.50;93.50
54429;DHT22;40337;52.978;6.310;2023-07-02T14:45:51;19.30;93.50
54429;DHT22;40337;52.978;6.310;2023-07-02T14:48:17;19.20;94.00
54429;DHT22;40337;52.978;6.310;2023-07-02T14:50:54;19.00;94.20
54429;DHT22;40337;52.978;6.310;2023-07-02T14:53:20;19.00;94.40
54429;DHT22;40337;52.978;6.310;2023-07-02T14:55:47;19.40;95.20
54429;DHT22;40337;52.978;6.310;2023-07-02T14:58:13;19.70;93.40
54429;DHT22;40337;52.978;6.310;2023-07-02T15:00:48;19.50;93.20
54429;DHT22;40337;52.978;6.310;2023-07-02T15:03:15;19.90;93.00
54429;DHT22;40337;52.978;6.310;2023-07-02T15:05:41;20.20;92.60
54429;DHT22;40337;52.978;6.310;2023-07-02T15:08:08;20.20;92.20
54429;DHT22;40337;52.978;6.310;2023-07-02T15:10:34;19.90;91.20
54429;DHT22;40337;52.978;6.310;2023-07-02T15:13:00;19.60;91.00
54429;DHT22;40337;52.978;6.310;2023-07-02T15:15:26;19.40;90.90
54429;DHT22;40337;52.978;6.310;2023-07-02T15:17:51;19.20;91.20
54429;DHT22;40337;52.978;6.310;2023-07-02T15:20:18;19.10;91.80
54429;DHT22;40337;52.978;6.310;2023-07-02T15:22:43;19.10;92.10
54429;DHT22;40337;52.978;6.310;2023-07-02T15:25:09;19.10;92.00
54429;DHT22;40337;52.978;6.310;2023-07-02T15:27:34;19.20;92.00
54429;DHT22;40337;52.978;6.310;2023-07-02T15:30:00;19.30;92.90
54429;DHT22;40337;52.978;6.310;2023-07-02T15:32:26;19.20;92.40